sensor_id;sensor_type;location;lat;lon;timestamp;temperature;humidity
79187;SHT31;68616;51.980;5.646;2023-03-21T00:01:13;12.9;72.0
79187;SHT31;68616;51.980;5.646;2023-03-21T00:03:44;12.8;72.0
79187;SHT31;68616;51.980;5.646;2023-03-21T00:06:14;12.8;72.0
79187;SHT31;68616;51.980;5.646;2023-03-21T00:08:45;12.8;72.1
79187;SHT31;68616;51.980;5.646;2023-03-21T00:11:14;12.8;72.1
79187;SHT31;68616;51.980;5.646;2023-03-21T00:13:42;12.8;72.2
79187;SHT31;68616;51.980;5.646;2023-03-21T00:16:13;12.8;72.3
79187;SHT31;68616;51.980;5.646;2023-03-21T00:18:44;12.8;72.6
79187;SHT31;68616;51.980;5.646;2023-03-21T00:21:16;12.8;72.6
79187;SHT31;68616;51.980;5.646;2023-03-21T00:23:45;12.8;72.7
79187;SHT31;68616;51.980;5.646;2023-03-21T00:26:14;12.8;72.7
79187;SHT31;68616;51.980;5.646;2023-03-21T00:28:43;12.8;72.7
79187;SHT31;68616;51.980;5.646;2023-03-21T00:31:12;12.8;72.8
79187;SHT31;68616;51.980;5.646;2023-03-21T00:33:40;12.8;72.9
79187;SHT31;68616;51.980;5.646;2023-03-21T00:36:10;12.8;72.9
79187;SHT31;68616;51.980;5.646;2023-03-21T00:38:41;12.7;73.2
79187;SHT31;68616;51.980;5.646;2023-03-21T00:41:12;12.7;73.2
79187;SHT31;68616;51.980;5.646;2023-03-21T00:43:44;12.8;73.0
79187;SHT31;68616;51.980;5.646;2023-03-21T00:46:14;12.7;73.0
79187;SHT31;68616;51.980;5.646;2023-03-21T00:48:43;12.7;72.9
79187;SHT31;68616;51.980;5.646;2023-03-21T00:51:16;12.7;72.9
79187;SHT31;68616;51.980;5.646;2023-03-21T00:53:46;12.7;73.0
79187;SHT31;68616;51.980;5.646;2023-03-21T00:56:15;12.7;72.9
79187;SHT31;68616;51.980;5.646;2023-03-21T00:58:44;12.7;72.8
79187;SHT31;68616;51.980;5.646;2023-03-21T01:01:12;12.7;72.8
79187;SHT31;68616;51.980;5.646;2023-03-21T01:03:41;12.6;72.7
79187;SHT31;68616;51.980;5.646;2023-03-21T01:06:13;12.6;72.7
79187;SHT31;68616;51.980;5.646;2023-03-21T01:08:47;12.6;72.7
79187;SHT31;68616;51.980;5.646;2023-03-21T01:11:18;12.6;72.6
79187;SHT31;68616;51.980;5.646;2023-03-21T01:13:50;12.6;72.5
79187;SHT31;68616;51.980;5.646;2023-03-21T01:16:21;12.6;72.5
79187;SHT31;68616;51.980;5.646;2023-03-21T01:18:50;12.7;72.4
79187;SHT31;68616;51.980;5.646;2023-03-21T01:21:21;12.7;71.9
79187;SHT31;68616;51.980;5.646;2023-03-21T01:23:50;12.7;71.8
79187;SHT31;68616;51.980;5.646;2023-03-21T01:26:19;12.7;71.8
79187;SHT31;68616;51.980;5.646;2023-03-21T01:28:48;12.7;71.8
79187;SHT31;68616;51.980;5.646;2023-03-21T01:31:17;12.7;71.9
79187;SHT31;68616;51.980;5.646;2023-03-21T01:33:46;12.7;71.7
79187;SHT31;68616;51.980;5.646;2023-03-21T01:36:17;12.7;71.6
79187;SHT31;68616;51.980;5.646;2023-03-21T01:38:48;12.7;71.4
79187;SHT31;68616;51.980;5.646;2023-03-21T01:41:22;12.7;71.5
79187;SHT31;68616;51.980;5.646;2023-03-21T01:43:52;12.7;71.4
79187;SHT31;68616;51.980;5.646;2023-03-21T01:46:54;12.7;71.4
79187;SHT31;68616;51.980;5.646;2023-03-21T01:49:26;12.7;71.3
79187;SHT31;68616;51.980;5.646;2023-03-21T01:52:02;12.7;71.4
79187;SHT31;68616;51.980;5.646;2023-03-21T01:54:36;12.7;71.3
79187;SHT31;68616;51.980;5.646;2023-03-21T01:57:12;12.7;71.3
79187;SHT31;68616;51.980;5.646;2023-03-21T01:59:46;12.7;71.5
79187;SHT31;68616;51.980;5.646;2023-03-21T02:02:22;12.7;71.6
79187;SHT31;68616;51.980;5.646;2023-03-21T02:04:51;12.7;71.6
79187;SHT31;68616;51.980;5.646;2023-03-21T02:07:24;12.7;71.6
79187;SHT31;68616;51.980;5.646;2023-03-21T02:09:55;12.7;71.7
79187;SHT31;68616;51.980;5.646;2023-03-21T02:12:26;12.7;71.6
79187;SHT31;68616;51.980;5.646;2023-03-21T02:14:56;12.7;71.6
79187;SHT31;68616;51.980;5.646;2023-03-21T02:17:30;12.7;71.5
79187;SHT31;68616;51.980;5.646;2023-03-21T02:20:44;12.7;71.4
79187;SHT31;68616;51.980;5.646;2023-03-21T02:24:10;12.7;71.7
79187;SHT31;68616;51.980;5.646;2023-03-21T02:26:57;12.7;71.7
79187;SHT31;68616;51.980;5.646;2023-03-21T02:30:02;12.7;71.8
79187;SHT31;68616;51.980;5.646;2023-03-21T02:32:51;12.7;71.7
79187;SHT31;68616;51.980;5.646;2023-03-21T02:35:51;12.7;71.7
79187;SHT31;68616;51.980;5.646;2023-03-21T02:38:27;12.7;71.9
79187;SHT31;68616;51.980;5.646;2023-03-21T02:41:05;12.6;71.9
79187;SHT31;68616;51.980;5.646;2023-03-21T02:43:41;12.6;72.0
79187;SHT31;68616;51.980;5.646;2023-03-21T02:46:16;12.6;72.0
79187;SHT31;68616;51.980;5.646;2023-03-21T02:48:55;12.6;72.1
79187;SHT31;68616;51.980;5.646;2023-03-21T02:51:26;12.6;72.1
79187;SHT31;68616;51.980;5.646;2023-03-21T02:54:01;12.6;72.2
79187;SHT31;68616;51.980;5.646;2023-03-21T02:56:32;12.6;72.2
79187;SHT31;68616;51.980;5.646;2023-03-21T02:59:03;12.6;72.3
79187;SHT31;68616;51.980;5.646;2023-03-21T03:01:34;12.6;72.2
79187;SHT31;68616;51.980;5.646;2023-03-21T03:04:03;12.6;72.2
79187;SHT31;68616;51.980;5.646;2023-03-21T03:06:39;12.6;72.1
79187;SHT31;68616;51.980;5.646;2023-03-21T03:09:27;12.6;72.1
79187;SHT31;68616;51.980;5.646;2023-03-21T03:12:06;12.6;72.2
79187;SHT31;68616;51.980;5.646;2023-03-21T03:14:54;12.6;72.2
79187;SHT31;68616;51.980;5.646;2023-03-21T03:17:42;12.6;72.2
79187;SHT31;68616;51.980;5.646;2023-03-21T03:20:27;12.6;72.3
79187;SHT31;68616;51.980;5.646;2023-03-21T03:23:04;12.6;72.2
79187;SHT31;68616;51.980;5.646;2023-03-21T03:25:44;12.6;72.2
79187;SHT31;68616;51.980;5.646;2023-03-21T03:28:19;12.6;72.2
79187;SHT31;68616;51.980;5.646;2023-03-21T03:30:50;12.6;72.2
79187;SHT31;68616;51.980;5.646;2023-03-21T03:33:21;12.7;72.2
79187;SHT31;68616;51.980;5.646;2023-03-21T03:35:53;12.7;72.1
79187;SHT31;68616;51.980;5.646;2023-03-21T03:38:25;12.7;72.2
79187;SHT31;68616;51.980;5.646;2023-03-21T03:40:59;12.7;72.0
79187;SHT31;68616;51.980;5.646;2023-03-21T03:43:35;12.6;71.8
79187;SHT31;68616;51.980;5.646;2023-03-21T03:46:10;12.6;71.9
79187;SHT31;68616;51.980;5.646;2023-03-21T03:48:48;12.6;71.9
79187;SHT31;68616;51.980;5.646;2023-03-21T03:51:22;12.6;71.9
79187;SHT31;68616;51.980;5.646;2023-03-21T03:53:58;12.6;71.6
79187;SHT31;68616;51.980;5.646;2023-03-21T03:56:28;12.6;71.6
79187;SHT31;68616;51.980;5.646;2023-03-21T03:58:58;12.6;71.4
79187;SHT31;68616;51.980;5.646;2023-03-21T04:01:28;12.6;71.1
79187;SHT31;68616;51.980;5.646;2023-03-21T04:03:57;12.7;70.9
79187;SHT31;68616;51.980;5.646;2023-03-21T04:06:28;12.7;70.8
79187;SHT31;68616;51.980;5.646;2023-03-21T04:08:58;12.7;70.7
79187;SHT31;68616;51.980;5.646;2023-03-21T04:11:26;12.7;70.6
79187;SHT31;68616;51.980;5.646;2023-03-21T04:13:57;12.7;70.7
79187;SHT31;68616;51.980;5.646;2023-03-21T04:16:26;12.7;70.5
79187;SHT31;68616;51.980;5.646;2023-03-21T04:18:56;12.7;70.5
79187;SHT31;68616;51.980;5.646;2023-03-21T04:21:27;12.7;70.4
79187;SHT31;68616;51.980;5.646;2023-03-21T04:23:57;12.7;70.5
79187;SHT31;68616;51.980;5.646;2023-03-21T04:26:26;12.7;70.3
79187;SHT31;68616;51.980;5.646;2023-03-21T04:29:01;12.7;70.2
79187;SHT31;68616;51.980;5.646;2023-03-21T04:31:32;12.7;70.0
79187;SHT31;68616;51.980;5.646;2023-03-21T04:34:05;12.7;70.1
79187;SHT31;68616;51.980;5.646;2023-03-21T04:36:35;12.7;70.1
79187;SHT31;68616;51.980;5.646;2023-03-21T04:39:08;12.7;70.0
79187;SHT31;68616;51.980;5.646;2023-03-21T04:41:40;12.7;69.7
79187;SHT31;68616;51.980;5.646;2023-03-21T04:44:10;12.7;69.6
79187;SHT31;68616;51.980;5.646;2023-03-21T04:46:40;12.8;69.7
79187;SHT31;68616;51.980;5.646;2023-03-21T04:49:11;12.8;69.4
79187;SHT31;68616;51.980;5.646;2023-03-21T04:51:40;12.8;69.3
79187;SHT31;68616;51.980;5.646;2023-03-21T04:54:10;12.8;69.2
79187;SHT31;68616;51.980;5.646;2023-03-21T04:56:39;12.8;69.0
79187;SHT31;68616;51.980;5.646;2023-03-21T04:59:11;12.7;69.2
79187;SHT31;68616;51.980;5.646;2023-03-21T05:01:40;12.7;69.3
79187;SHT31;68616;51.980;5.646;2023-03-21T05:04:12;12.8;69.3
79187;SHT31;68616;51.980;5.646;2023-03-21T05:06:42;12.8;69.2
79187;SHT31;68616;51.980;5.646;2023-03-21T05:09:12;12.8;69.0
79187;SHT31;68616;51.980;5.646;2023-03-21T05:11:42;12.8;69.1
79187;SHT31;68616;51.980;5.646;2023-03-21T05:14:15;12.8;68.9
79187;SHT31;68616;51.980;5.646;2023-03-21T05:16:49;12.8;68.9
79187;SHT31;68616;51.980;5.646;2023-03-21T05:19:23;12.8;68.9
79187;SHT31;68616;51.980;5.646;2023-03-21T05:21:59;12.8;68.7
79187;SHT31;68616;51.980;5.646;2023-03-21T05:24:31;12.8;68.9
79187;SHT31;68616;51.980;5.646;2023-03-21T05:27:02;12.8;68.6
79187;SHT31;68616;51.980;5.646;2023-03-21T05:29:31;12.8;68.7
79187;SHT31;68616;51.980;5.646;2023-03-21T05:32:00;12.8;68.6
79187;SHT31;68616;51.980;5.646;2023-03-21T05:34:29;12.8;68.8
79187;SHT31;68616;51.980;5.646;2023-03-21T05:37:00;12.8;68.5
79187;SHT31;68616;51.980;5.646;2023-03-21T05:39:28;12.9;68.5
79187;SHT31;68616;51.980;5.646;2023-03-21T05:41:57;12.9;68.5
79187;SHT31;68616;51.980;5.646;2023-03-21T05:44:25;12.9;68.4
79187;SHT31;68616;51.980;5.646;2023-03-21T05:46:54;12.9;68.4
79187;SHT31;68616;51.980;5.646;2023-03-21T05:49:23;12.9;68.4
79187;SHT31;68616;51.980;5.646;2023-03-21T05:51:52;12.9;68.4
79187;SHT31;68616;51.980;5.646;2023-03-21T05:54:21;12.9;68.2
79187;SHT31;68616;51.980;5.646;2023-03-21T05:56:49;12.9;68.2
79187;SHT31;68616;51.980;5.646;2023-03-21T05:59:18;12.9;68.2
79187;SHT31;68616;51.980;5.646;2023-03-21T06:01:46;12.9;67.8
79187;SHT31;68616;51.980;5.646;2023-03-21T06:04:19;12.9;68.2
79187;SHT31;68616;51.980;5.646;2023-03-21T06:06:47;12.9;68.3
79187;SHT31;68616;51.980;5.646;2023-03-21T06:09:17;12.9;68.1
79187;SHT31;68616;51.980;5.646;2023-03-21T06:11:48;12.9;68.0
79187;SHT31;68616;51.980;5.646;2023-03-21T06:14:18;13.0;67.8
79187;SHT31;68616;51.980;5.646;2023-03-21T06:16:46;13.0;67.7
79187;SHT31;68616;51.980;5.646;2023-03-21T06:19:16;13.0;67.6
79187;SHT31;68616;51.980;5.646;2023-03-21T06:21:44;13.0;67.5
79187;SHT31;68616;51.980;5.646;2023-03-21T06:24:13;13.0;67.6
79187;SHT31;68616;51.980;5.646;2023-03-21T06:26:43;13.0;67.8
79187;SHT31;68616;51.980;5.646;2023-03-21T06:29:13;13.0;67.6
79187;SHT31;68616;51.980;5.646;2023-03-21T06:31:42;13.0;67.3
79187;SHT31;68616;51.980;5.646;2023-03-21T06:34:12;13.0;67.5
79187;SHT31;68616;51.980;5.646;2023-03-21T06:36:41;13.0;67.1
79187;SHT31;68616;51.980;5.646;2023-03-21T06:39:13;13.0;67.3
79187;SHT31;68616;51.980;5.646;2023-03-21T06:41:44;13.0;67.3
79187;SHT31;68616;51.980;5.646;2023-03-21T06:44:13;13.0;66.9
79187;SHT31;68616;51.980;5.646;2023-03-21T06:46:42;13.0;66.9
79187;SHT31;68616;51.980;5.646;2023-03-21T06:49:11;13.1;66.7
79187;SHT31;68616;51.980;5.646;2023-03-21T06:51:39;13.1;66.8
79187;SHT31;68616;51.980;5.646;2023-03-21T06:54:08;13.1;66.8
79187;SHT31;68616;51.980;5.646;2023-03-21T06:56:38;13.1;66.9
79187;SHT31;68616;51.980;5.646;2023-03-21T06:59:07;13.1;66.7
79187;SHT31;68616;51.980;5.646;2023-03-21T07:01:36;13.1;66.4
79187;SHT31;68616;51.980;5.646;2023-03-21T07:04:05;13.1;67.0
79187;SHT31;68616;51.980;5.646;2023-03-21T07:06:34;13.1;66.7
79187;SHT31;68616;51.980;5.646;2023-03-21T07:09:04;13.1;66.6
79187;SHT31;68616;51.980;5.646;2023-03-21T07:11:34;13.1;66.6
79187;SHT31;68616;51.980;5.646;2023-03-21T07:14:04;13.2;66.5
79187;SHT31;68616;51.980;5.646;2023-03-21T07:16:33;13.2;66.4
79187;SHT31;68616;51.980;5.646;2023-03-21T07:19:01;13.3;66.6
79187;SHT31;68616;51.980;5.646;2023-03-21T07:21:30;13.3;66.3
79187;SHT31;68616;51.980;5.646;2023-03-21T07:24:00;13.3;66.2
79187;SHT31;68616;51.980;5.646;2023-03-21T07:26:29;13.3;66.7
79187;SHT31;68616;51.980;5.646;2023-03-21T07:28:58;13.3;66.5
79187;SHT31;68616;51.980;5.646;2023-03-21T07:31:29;13.3;66.7
79187;SHT31;68616;51.980;5.646;2023-03-21T07:33:58;13.3;66.7
79187;SHT31;68616;51.980;5.646;2023-03-21T07:36:27;13.3;66.2
79187;SHT31;68616;51.980;5.646;2023-03-21T07:38:57;13.3;66.7
79187;SHT31;68616;51.980;5.646;2023-03-21T07:41:26;13.3;66.7
79187;SHT31;68616;51.980;5.646;2023-03-21T07:43:56;13.3;66.6
79187;SHT31;68616;51.980;5.646;2023-03-21T07:46:25;13.3;67.0
79187;SHT31;68616;51.980;5.646;2023-03-21T07:48:54;13.3;67.2
79187;SHT31;68616;51.980;5.646;2023-03-21T07:51:23;13.2;67.2
79187;SHT31;68616;51.980;5.646;2023-03-21T07:53:52;13.2;67.9
79187;SHT31;68616;51.980;5.646;2023-03-21T07:56:21;13.2;68.0
79187;SHT31;68616;51.980;5.646;2023-03-21T07:58:49;13.2;68.3
79187;SHT31;68616;51.980;5.646;2023-03-21T08:01:18;13.2;67.9
79187;SHT31;68616;51.980;5.646;2023-03-21T08:03:47;13.3;68.1
79187;SHT31;68616;51.980;5.646;2023-03-21T08:06:17;13.2;68.0
79187;SHT31;68616;51.980;5.646;2023-03-21T08:08:45;13.2;68.3
79187;SHT31;68616;51.980;5.646;2023-03-21T08:11:14;13.2;68.8
79187;SHT31;68616;51.980;5.646;2023-03-21T08:13:44;13.2;68.6
79187;SHT31;68616;51.980;5.646;2023-03-21T08:16:13;13.3;68.5
79187;SHT31;68616;51.980;5.646;2023-03-21T08:18:41;13.3;68.4
79187;SHT31;68616;51.980;5.646;2023-03-21T08:21:11;13.3;68.3
79187;SHT31;68616;51.980;5.646;2023-03-21T08:23:41;13.3;67.8
79187;SHT31;68616;51.980;5.646;2023-03-21T08:26:09;13.3;67.2
79187;SHT31;68616;51.980;5.646;2023-03-21T08:28:41;13.3;67.6
79187;SHT31;68616;51.980;5.646;2023-03-21T08:31:11;13.3;66.9
79187;SHT31;68616;51.980;5.646;2023-03-21T08:33:40;13.3;67.3
79187;SHT31;68616;51.980;5.646;2023-03-21T08:36:09;13.3;67.3
79187;SHT31;68616;51.980;5.646;2023-03-21T08:38:38;13.3;67.5
79187;SHT31;68616;51.980;5.646;2023-03-21T08:41:10;13.4;67.1
79187;SHT31;68616;51.980;5.646;2023-03-21T08:43:38;13.4;67.3
79187;SHT31;68616;51.980;5.646;2023-03-21T08:46:08;13.4;68.1
79187;SHT31;68616;51.980;5.646;2023-03-21T08:48:37;13.4;68.1
79187;SHT31;68616;51.980;5.646;2023-03-21T08:51:06;13.4;68.0
79187;SHT31;68616;51.980;5.646;2023-03-21T08:53:36;13.4;67.7
79187;SHT31;68616;51.980;5.646;2023-03-21T08:56:07;13.4;68.7
79187;SHT31;68616;51.980;5.646;2023-03-21T08:58:36;13.4;68.7
79187;SHT31;68616;51.980;5.646;2023-03-21T09:01:06;13.5;68.3
79187;SHT31;68616;51.980;5.646;2023-03-21T09:03:36;13.5;67.5
79187;SHT31;68616;51.980;5.646;2023-03-21T09:06:06;13.5;67.2
79187;SHT31;68616;51.980;5.646;2023-03-21T09:08:36;13.5;67.5
79187;SHT31;68616;51.980;5.646;2023-03-21T09:11:05;13.6;67.8
79187;SHT31;68616;51.980;5.646;2023-03-21T09:13:34;13.6;67.3
79187;SHT31;68616;51.980;5.646;2023-03-21T09:16:03;13.6;67.8
79187;SHT31;68616;51.980;5.646;2023-03-21T09:18:32;13.7;68.4
79187;SHT31;68616;51.980;5.646;2023-03-21T09:21:13;13.7;68.2
79187;SHT31;68616;51.980;5.646;2023-03-21T09:23:43;13.8;68.6
79187;SHT31;68616;51.980;5.646;2023-03-21T09:26:14;13.8;68.1
79187;SHT31;68616;51.980;5.646;2023-03-21T09:28:43;13.9;68.3
79187;SHT31;68616;51.980;5.646;2023-03-21T09:31:12;13.9;67.9
79187;SHT31;68616;51.980;5.646;2023-03-21T09:33:42;14.0;67.3
79187;SHT31;68616;51.980;5.646;2023-03-21T09:36:11;14.0;66.7
79187;SHT31;68616;51.980;5.646;2023-03-21T09:38:42;14.1;67.6
79187;SHT31;68616;51.980;5.646;2023-03-21T09:41:27;14.1;67.0
79187;SHT31;68616;51.980;5.646;2023-03-21T09:44:10;14.1;66.8
79187;SHT31;68616;51.980;5.646;2023-03-21T09:46:46;14.2;67.1
79187;SHT31;68616;51.980;5.646;2023-03-21T09:49:21;14.2;66.5
79187;SHT31;68616;51.980;5.646;2023-03-21T09:51:54;14.3;66.2
79187;SHT31;68616;51.980;5.646;2023-03-21T09:54:26;14.3;65.8
79187;SHT31;68616;51.980;5.646;2023-03-21T09:57:02;14.4;64.6
79187;SHT31;68616;51.980;5.646;2023-03-21T09:59:35;14.4;65.2
79187;SHT31;68616;51.980;5.646;2023-03-21T10:02:23;14.4;65.3
79187;SHT31;68616;51.980;5.646;2023-03-21T10:04:58;14.4;64.4
79187;SHT31;68616;51.980;5.646;2023-03-21T10:07:30;14.5;64.5
79187;SHT31;68616;51.980;5.646;2023-03-21T10:10:02;14.5;64.0
79187;SHT31;68616;51.980;5.646;2023-03-21T10:12:32;14.5;64.7
79187;SHT31;68616;51.980;5.646;2023-03-21T10:15:02;14.6;64.1
79187;SHT31;68616;51.980;5.646;2023-03-21T10:17:42;14.6;64.1
79187;SHT31;68616;51.980;5.646;2023-03-21T10:20:15;14.6;63.4
79187;SHT31;68616;51.980;5.646;2023-03-21T10:22:50;14.7;63.2
79187;SHT31;68616;51.980;5.646;2023-03-21T10:25:23;14.7;63.0
79187;SHT31;68616;51.980;5.646;2023-03-21T10:27:54;14.7;63.9
79187;SHT31;68616;51.980;5.646;2023-03-21T10:30:44;14.8;63.5
79187;SHT31;68616;51.980;5.646;2023-03-21T10:33:16;14.8;62.8
79187;SHT31;68616;51.980;5.646;2023-03-21T10:35:49;14.9;63.3
79187;SHT31;68616;51.980;5.646;2023-03-21T10:38:22;15.0;63.4
79187;SHT31;68616;51.980;5.646;2023-03-21T10:40:53;15.0;62.0
79187;SHT31;68616;51.980;5.646;2023-03-21T10:43:34;15.1;61.9
79187;SHT31;68616;51.980;5.646;2023-03-21T10:46:11;15.1;61.5
79187;SHT31;68616;51.980;5.646;2023-03-21T10:48:41;15.2;61.6
79187;SHT31;68616;51.980;5.646;2023-03-21T10:51:16;15.2;61.2
79187;SHT31;68616;51.980;5.646;2023-03-21T10:53:50;15.3;61.9
79187;SHT31;68616;51.980;5.646;2023-03-21T10:56:22;15.4;61.0
79187;SHT31;68616;51.980;5.646;2023-03-21T10:58:55;15.5;61.4
79187;SHT31;68616;51.980;5.646;2023-03-21T11:01:38;15.6;59.7
79187;SHT31;68616;51.980;5.646;2023-03-21T11:04:14;15.6;59.2
79187;SHT31;68616;51.980;5.646;2023-03-21T11:06:49;15.7;58.7
79187;SHT31;68616;51.980;5.646;2023-03-21T11:09:22;15.7;59.2
79187;SHT31;68616;51.980;5.646;2023-03-21T11:11:52;15.8;58.3
79187;SHT31;68616;51.980;5.646;2023-03-21T11:14:31;15.8;58.2
79187;SHT31;68616;51.980;5.646;2023-03-21T11:17:14;15.8;58.2
79187;SHT31;68616;51.980;5.646;2023-03-21T11:19:50;15.8;58.5
79187;SHT31;68616;51.980;5.646;2023-03-21T11:22:21;15.8;57.9
79187;SHT31;68616;51.980;5.646;2023-03-21T11:24:53;15.8;58.3
79187;SHT31;68616;51.980;5.646;2023-03-21T11:27:26;15.8;59.0
79187;SHT31;68616;51.980;5.646;2023-03-21T11:29:57;15.8;59.2
79187;SHT31;68616;51.980;5.646;2023-03-21T11:32:32;15.8;59.6
79187;SHT31;68616;51.980;5.646;2023-03-21T11:35:04;15.9;59.2
79187;SHT31;68616;51.980;5.646;2023-03-21T11:37:38;15.9;58.0
79187;SHT31;68616;51.980;5.646;2023-03-21T11:40:18;16.0;58.1
79187;SHT31;68616;51.980;5.646;2023-03-21T11:42:51;16.0;58.3
79187;SHT31;68616;51.980;5.646;2023-03-21T11:45:22;16.1;57.6
79187;SHT31;68616;51.980;5.646;2023-03-21T11:47:53;16.1;57.3
79187;SHT31;68616;51.980;5.646;2023-03-21T11:50:28;16.2;57.1
79187;SHT31;68616;51.980;5.646;2023-03-21T11:53:23;16.2;56.5
79187;SHT31;68616;51.980;5.646;2023-03-21T11:56:18;16.2;56.4
79187;SHT31;68616;51.980;5.646;2023-03-21T11:59:19;16.2;57.0
79187;SHT31;68616;51.980;5.646;2023-03-21T12:02:06;16.2;56.7
79187;SHT31;68616;51.980;5.646;2023-03-21T12:04:41;16.2;57.4
79187;SHT31;68616;51.980;5.646;2023-03-21T12:07:29;16.3;56.4
79187;SHT31;68616;51.980;5.646;2023-03-21T12:10:25;16.3;56.4
79187;SHT31;68616;51.980;5.646;2023-03-21T12:12:58;16.3;55.7
79187;SHT31;68616;51.980;5.646;2023-03-21T12:15:37;16.3;55.5
79187;SHT31;68616;51.980;5.646;2023-03-21T12:18:18;16.3;56.2
79187;SHT31;68616;51.980;5.646;2023-03-21T12:20:52;16.3;55.9
79187;SHT31;68616;51.980;5.646;2023-03-21T12:23:29;16.3;56.0
79187;SHT31;68616;51.980;5.646;2023-03-21T12:26:07;16.3;56.8
79187;SHT31;68616;51.980;5.646;2023-03-21T12:28:44;16.4;56.1
79187;SHT31;68616;51.980;5.646;2023-03-21T12:31:21;16.4;56.2
79187;SHT31;68616;51.980;5.646;2023-03-21T12:34:08;16.4;56.1
79187;SHT31;68616;51.980;5.646;2023-03-21T12:36:57;16.5;55.7
79187;SHT31;68616;51.980;5.646;2023-03-21T12:39:33;16.5;55.2
79187;SHT31;68616;51.980;5.646;2023-03-21T12:42:22;16.6;56.2
79187;SHT31;68616;51.980;5.646;2023-03-21T12:44:57;16.6;55.9
79187;SHT31;68616;51.980;5.646;2023-03-21T12:47:32;16.7;55.2
79187;SHT31;68616;51.980;5.646;2023-03-21T12:50:11;16.7;54.2
79187;SHT31;68616;51.980;5.646;2023-03-21T12:52:45;16.8;54.4
79187;SHT31;68616;51.980;5.646;2023-03-21T12:55:19;16.8;53.0
79187;SHT31;68616;51.980;5.646;2023-03-21T12:57:56;16.8;53.6
79187;SHT31;68616;51.980;5.646;2023-03-21T13:00:37;16.9;53.4
79187;SHT31;68616;51.980;5.646;2023-03-21T13:03:11;16.9;53.2
79187;SHT31;68616;51.980;5.646;2023-03-21T13:05:49;16.9;53.1
79187;SHT31;68616;51.980;5.646;2023-03-21T13:08:25;16.9;53.6
79187;SHT31;68616;51.980;5.646;2023-03-21T13:10:58;16.8;53.5
79187;SHT31;68616;51.980;5.646;2023-03-21T13:13:32;16.8;53.4
79187;SHT31;68616;51.980;5.646;2023-03-21T13:16:08;16.8;53.2
79187;SHT31;68616;51.980;5.646;2023-03-21T13:18:50;16.7;53.1
79187;SHT31;68616;51.980;5.646;2023-03-21T13:21:35;16.7;53.3
79187;SHT31;68616;51.980;5.646;2023-03-21T13:24:18;16.7;54.0
79187;SHT31;68616;51.980;5.646;2023-03-21T13:26:51;16.6;54.0
79187;SHT31;68616;51.980;5.646;2023-03-21T13:29:25;16.6;55.0
79187;SHT31;68616;51.980;5.646;2023-03-21T13:32:00;16.9;55.6
79187;SHT31;68616;51.980;5.646;2023-03-21T13:34:32;17.6;53.7
79187;SHT31;68616;51.980;5.646;2023-03-21T13:37:01;18.3;51.2
79187;SHT31;68616;51.980;5.646;2023-03-21T13:39:31;18.9;49.4
79187;SHT31;68616;51.980;5.646;2023-03-21T13:42:10;19.2;47.6
79187;SHT31;68616;51.980;5.646;2023-03-21T13:44:48;19.3;47.5
79187;SHT31;68616;51.980;5.646;2023-03-21T13:47:34;19.3;47.0
79187;SHT31;68616;51.980;5.646;2023-03-21T13:50:32;19.3;46.0
79187;SHT31;68616;51.980;5.646;2023-03-21T13:54:13;19.3;46.5
79187;SHT31;68616;51.980;5.646;2023-03-21T13:56:50;19.2;45.2
79187;SHT31;68616;51.980;5.646;2023-03-21T13:59:39;19.1;44.3
79187;SHT31;68616;51.980;5.646;2023-03-21T14:02:28;19.0;44.8
79187;SHT31;68616;51.980;5.646;2023-03-21T14:05:00;18.8;45.0
79187;SHT31;68616;51.980;5.646;2023-03-21T14:07:33;18.7;45.9
79187;SHT31;68616;51.980;5.646;2023-03-21T14:10:06;18.6;46.2
79187;SHT31;68616;51.980;5.646;2023-03-21T14:12:38;18.6;45.0
79187;SHT31;68616;51.980;5.646;2023-03-21T14:15:19;18.5;45.5
79187;SHT31;68616;51.980;5.646;2023-03-21T14:17:53;18.4;45.9
79187;SHT31;68616;51.980;5.646;2023-03-21T14:20:24;18.4;45.9
79187;SHT31;68616;51.980;5.646;2023-03-21T14:22:54;18.3;46.9
79187;SHT31;68616;51.980;5.646;2023-03-21T14:25:32;18.3;46.5
79187;SHT31;68616;51.980;5.646;2023-03-21T14:28:02;18.2;44.9
79187;SHT31;68616;51.980;5.646;2023-03-21T14:30:36;18.2;45.5
79187;SHT31;68616;51.980;5.646;2023-03-21T14:33:14;18.2;46.6
79187;SHT31;68616;51.980;5.646;2023-03-21T14:35:45;18.1;46.3
79187;SHT31;68616;51.980;5.646;2023-03-21T14:38:22;18.1;46.5
79187;SHT31;68616;51.980;5.646;2023-03-21T14:40:53;18.1;46.1
79187;SHT31;68616;51.980;5.646;2023-03-21T14:43:25;18.0;47.2
79187;SHT31;68616;51.980;5.646;2023-03-21T14:45:58;18.0;46.3
79187;SHT31;68616;51.980;5.646;2023-03-21T14:48:31;18.0;46.6
79187;SHT31;68616;51.980;5.646;2023-03-21T14:51:04;18.0;46.2
79187;SHT31;68616;51.980;5.646;2023-03-21T14:53:37;17.9;46.5
79187;SHT31;68616;51.980;5.646;2023-03-21T14:56:11;17.9;47.3
79187;SHT31;68616;51.980;5.646;2023-03-21T14:58:45;17.9;47.9
79187;SHT31;68616;51.980;5.646;2023-03-21T15:01:16;17.8;47.4
79187;SHT31;68616;51.980;5.646;2023-03-21T15:03:49;17.8;47.6
79187;SHT31;68616;51.980;5.646;2023-03-21T15:06:18;17.8;47.3
79187;SHT31;68616;51.980;5.646;2023-03-21T15:08:58;17.7;47.6
79187;SHT31;68616;51.980;5.646;2023-03-21T15:11:32;17.7;48.0
79187;SHT31;68616;51.980;5.646;2023-03-21T15:14:04;17.6;47.8
79187;SHT31;68616;51.980;5.646;2023-03-21T15:16:34;17.6;48.1
79187;SHT31;68616;51.980;5.646;2023-03-21T15:19:05;17.5;48.0
79187;SHT31;68616;51.980;5.646;2023-03-21T15:21:37;17.5;48.5
79187;SHT31;68616;51.980;5.646;2023-03-21T15:24:12;17.4;48.8
79187;SHT31;68616;51.980;5.646;2023-03-21T15:26:46;17.4;49.1
79187;SHT31;68616;51.980;5.646;2023-03-21T15:29:16;17.3;49.3
79187;SHT31;68616;51.980;5.646;2023-03-21T15:31:47;17.3;49.7
79187;SHT31;68616;51.980;5.646;2023-03-21T15:34:21;17.2;50.1
79187;SHT31;68616;51.980;5.646;2023-03-21T15:36:55;17.2;50.0
79187;SHT31;68616;51.980;5.646;2023-03-21T15:39:26;17.2;51.0
79187;SHT31;68616;51.980;5.646;2023-03-21T15:42:01;17.1;50.5
79187;SHT31;68616;51.980;5.646;2023-03-21T15:44:32;17.1;50.6
79187;SHT31;68616;51.980;5.646;2023-03-21T15:47:02;17.1;51.1
79187;SHT31;68616;51.980;5.646;2023-03-21T15:49:32;17.1;51.1
79187;SHT31;68616;51.980;5.646;2023-03-21T15:52:05;17.0;51.9
79187;SHT31;68616;51.980;5.646;2023-03-21T15:54:42;17.0;51.4
79187;SHT31;68616;51.980;5.646;2023-03-21T15:57:23;17.0;51.7
79187;SHT31;68616;51.980;5.646;2023-03-21T16:00:00;17.0;51.7
79187;SHT31;68616;51.980;5.646;2023-03-21T16:02:39;17.0;51.9
79187;SHT31;68616;51.980;5.646;2023-03-21T16:05:21;16.9;52.1
79187;SHT31;68616;51.980;5.646;2023-03-21T16:07:51;16.9;52.3
79187;SHT31;68616;51.980;5.646;2023-03-21T16:10:28;16.9;52.7
79187;SHT31;68616;51.980;5.646;2023-03-21T16:12:57;16.9;52.5
79187;SHT31;68616;51.980;5.646;2023-03-21T16:15:26;16.9;52.2
79187;SHT31;68616;51.980;5.646;2023-03-21T16:17:57;16.9;52.7
79187;SHT31;68616;51.980;5.646;2023-03-21T16:20:28;16.9;53.0
79187;SHT31;68616;51.980;5.646;2023-03-21T16:23:00;16.9;52.6
79187;SHT31;68616;51.980;5.646;2023-03-21T16:25:29;16.9;52.7
79187;SHT31;68616;51.980;5.646;2023-03-21T16:28:01;16.8;53.1
79187;SHT31;68616;51.980;5.646;2023-03-21T16:30:31;16.8;53.0
79187;SHT31;68616;51.980;5.646;2023-03-21T16:33:02;16.8;53.0
79187;SHT31;68616;51.980;5.646;2023-03-21T16:35:31;16.7;53.0
79187;SHT31;68616;51.980;5.646;2023-03-21T16:38:00;16.7;53.4
79187;SHT31;68616;51.980;5.646;2023-03-21T16:40:33;16.7;53.7
79187;SHT31;68616;51.980;5.646;2023-03-21T16:43:02;16.6;53.8